createdAt,value
2022-10-20T00:04:18.127Z,101574.09
2022-10-20T00:06:44.517Z,101570.47
2022-10-20T00:09:11.330Z,101559.78
2022-10-20T00:11:37.854Z,101560.00
2022-10-20T00:14:05.038Z,101556.81
2022-10-20T00:16:34.716Z,101554.06
2022-10-20T00:19:01.097Z,101549.41
2022-10-20T00:21:28.960Z,101549.19
2022-10-20T00:23:55.512Z,101537.47
2022-10-20T00:26:24.827Z,101532.50
2022-10-20T00:28:52.509Z,101529.81
2022-10-20T00:31:20.382Z,101528.84
2022-10-20T00:33:47.536Z,101521.41
2022-10-20T00:36:16.417Z,101509.59
2022-10-20T00:38:43.336Z,101512.84
2022-10-20T00:41:13.422Z,101510.34
2022-10-20T00:43:44.253Z,101516.31
2022-10-20T00:46:13.761Z,101518.59
2022-10-20T00:48:41.922Z,101504.81
2022-10-20T00:51:08.602Z,101503.47
2022-10-20T00:53:36.065Z,101498.19
2022-10-20T00:56:02.808Z,101488.69
2022-10-20T00:58:29.476Z,101482.34
2022-10-20T01:00:58.793Z,101489.81
2022-10-20T01:03:34.869Z,101477.69
2022-10-20T01:06:01.252Z,101463.34
2022-10-20T01:08:27.751Z,101471.09
2022-10-20T01:11:17.863Z,101461.88
2022-10-20T01:13:56.334Z,101464.91
2022-10-20T01:16:46.758Z,101456.66
2022-10-20T01:19:13.076Z,101455.22
2022-10-20T01:22:14.097Z,101445.00
2022-10-20T01:25:08.906Z,101444.63
2022-10-20T01:27:42.011Z,101442.81
2022-10-20T01:30:12.677Z,101442.81
2022-10-20T01:32:39.013Z,101448.44
2022-10-20T01:35:21.715Z,101446.13
2022-10-20T01:38:01.095Z,101444.84
2022-10-20T01:40:53.094Z,101442.19
2022-10-20T01:43:22.845Z,101447.09
2022-10-20T01:45:51.081Z,101441.41
2022-10-20T01:48:21.494Z,101437.38
2022-10-20T01:50:49.837Z,101440.41
2022-10-20T01:53:16.789Z,101441.19
2022-10-20T01:55:43.552Z,101448.78
2022-10-20T01:58:32.374Z,101426.09
2022-10-20T02:01:13.354Z,101432.47
2022-10-20T02:03:52.630Z,101423.38
2022-10-20T02:06:32.559Z,101432.09
2022-10-20T02:09:06.986Z,101422.53
2022-10-20T02:11:36.416Z,101432.66
2022-10-20T02:14:04.802Z,101433.69
2022-10-20T02:16:40.966Z,101422.16
2022-10-20T02:19:10.949Z,101426.94
2022-10-20T02:21:37.594Z,101420.56
2022-10-20T02:24:08.641Z,101418.31
2022-10-20T02:26:37.993Z,101402.78
2022-10-20T02:29:17.152Z,101401.06
2022-10-20T02:31:44.943Z,101379.28
2022-10-20T02:34:12.143Z,101380.31
2022-10-20T02:36:41.541Z,101390.09
2022-10-20T02:39:09.340Z,101381.53
2022-10-20T02:41:36.149Z,101373.75
2022-10-20T02:44:02.554Z,101384.34
2022-10-20T02:46:29.004Z,101382.19
2022-10-20T02:48:55.458Z,101394.41
2022-10-20T02:51:21.986Z,101380.22
2022-10-20T02:53:49.743Z,101376.94
2022-10-20T02:56:16.129Z,101374.94
2022-10-20T02:58:43.844Z,101374.94
2022-10-20T03:01:10.295Z,101369.69
2022-10-20T03:03:36.807Z,101379.13
2022-10-20T03:06:15.159Z,101381.38
2022-10-20T03:08:42.424Z,101373.16
2022-10-20T03:11:09.348Z,101366.00
2022-10-20T03:13:35.742Z,101360.59
2022-10-20T03:16:02.311Z,101356.31
2022-10-20T03:18:28.728Z,101361.94
2022-10-20T03:20:55.302Z,101359.78
2022-10-20T03:23:21.989Z,101347.03
2022-10-20T03:25:48.491Z,101340.72
2022-10-20T03:28:15.015Z,101343.66
2022-10-20T03:30:41.417Z,101337.88
2022-10-20T03:33:07.898Z,101329.56
2022-10-20T03:35:34.302Z,101338.31
2022-10-20T03:38:00.693Z,101329.47
2022-10-20T03:40:27.080Z,101323.63
2022-10-20T03:42:53.434Z,101326.47
2022-10-20T03:45:19.812Z,101323.34
2022-10-20T03:47:46.196Z,101332.91
2022-10-20T03:50:12.584Z,101328.31
2022-10-20T03:52:39.220Z,101326.91
2022-10-20T03:55:05.982Z,101322.13
2022-10-20T03:57:32.382Z,101312.16
2022-10-20T03:59:58.751Z,101312.13
2022-10-20T04:02:37.247Z,101309.72
2022-10-20T04:05:04.802Z,101314.94
2022-10-20T04:07:31.481Z,101297.19
2022-10-20T04:09:58.295Z,101294.66
2022-10-20T04:12:25.034Z,101289.84
2022-10-20T04:14:51.732Z,101286.59
2022-10-20T04:17:18.134Z,101280.59
2022-10-20T04:19:44.539Z,101271.22
2022-10-20T04:22:10.995Z,101281.44
2022-10-20T04:24:37.394Z,101275.25
2022-10-20T04:27:04.357Z,101291.78
2022-10-20T04:29:31.012Z,101273.06
2022-10-20T04:31:57.964Z,101276.03
2022-10-20T04:34:24.430Z,101274.16
2022-10-20T04:36:51.011Z,101271.28
2022-10-20T04:39:17.459Z,101264.38
2022-10-20T04:41:43.903Z,101272.94
2022-10-20T04:44:10.316Z,101264.38
2022-10-20T04:46:36.736Z,101260.78
2022-10-20T04:49:04.013Z,101257.53
2022-10-20T04:51:30.465Z,101247.44
2022-10-20T04:53:56.917Z,101259.50
2022-10-20T04:56:23.688Z,101249.03
2022-10-20T04:59:00.056Z,101240.75
2022-10-20T05:01:28.799Z,101229.25
2022-10-20T05:03:55.549Z,101221.16
2022-10-20T05:06:30.426Z,101227.03
2022-10-20T05:08:59.411Z,101226.22
2022-10-20T05:11:28.727Z,101224.38
2022-10-20T05:13:55.905Z,101218.50
2022-10-20T05:16:22.821Z,101211.75
2022-10-20T05:18:49.254Z,101214.69
2022-10-20T05:21:20.305Z,101215.50
2022-10-20T05:23:46.767Z,101202.91
2022-10-20T05:26:18.613Z,101212.78
2022-10-20T05:28:47.482Z,101210.88
2022-10-20T05:31:14.942Z,101200.94
2022-10-20T05:33:46.188Z,101206.75
2022-10-20T05:36:19.248Z,101207.97
2022-10-20T05:38:48.221Z,101201.19
2022-10-20T05:41:17.128Z,101200.31
2022-10-20T05:43:48.682Z,101207.75
2022-10-20T05:46:15.234Z,101198.25
2022-10-20T05:48:43.252Z,101194.94
2022-10-20T05:51:14.758Z,101206.03
2022-10-20T05:53:42.624Z,101195.66
2022-10-20T05:56:12.384Z,101199.00
2022-10-20T05:58:39.654Z,101193.84
2022-10-20T06:01:16.885Z,101200.38
2022-10-20T06:03:50.994Z,101207.50
2022-10-20T06:06:18.692Z,101205.63
2022-10-20T06:08:45.578Z,101203.59
2022-10-20T06:11:14.115Z,101199.69
2022-10-20T06:13:40.566Z,101200.31
2022-10-20T06:16:08.353Z,101194.19
2022-10-20T06:18:35.098Z,101189.94
2022-10-20T06:21:03.428Z,101181.13
2022-10-20T06:23:29.957Z,101193.03
2022-10-20T06:26:01.862Z,101193.84
2022-10-20T06:28:30.962Z,101200.03
2022-10-20T06:30:57.634Z,101200.78
2022-10-20T06:33:24.445Z,101198.66
2022-10-20T06:35:50.932Z,101207.28
2022-10-20T06:38:17.449Z,101197.81
2022-10-20T06:40:43.853Z,101197.72
2022-10-20T06:43:10.292Z,101184.94
2022-10-20T06:45:36.704Z,101197.91
2022-10-20T06:48:03.252Z,101196.50
2022-10-20T06:50:29.695Z,101192.19
2022-10-20T06:52:56.095Z,101185.13
2022-10-20T06:55:22.563Z,101184.47
2022-10-20T06:57:49.034Z,101187.97
2022-10-20T07:00:15.538Z,101194.00
2022-10-20T07:02:41.960Z,101198.06
2022-10-20T07:05:08.689Z,101196.78
2022-10-20T07:10:06.868Z,101190.59
2022-10-20T07:12:33.431Z,101185.72
2022-10-20T07:14:59.831Z,101193.72
2022-10-20T07:17:26.233Z,101191.66
2022-10-20T07:19:52.745Z,101183.25
2022-10-20T07:22:19.194Z,101207.16
2022-10-20T07:24:45.578Z,101192.72
2022-10-20T07:27:12.033Z,101195.25
2022-10-20T07:29:38.499Z,101178.09
2022-10-20T07:32:05.065Z,101190.66
2022-10-20T07:34:31.559Z,101192.56
2022-10-20T07:36:58.421Z,101183.56
2022-10-20T07:39:25.441Z,101180.41
2022-10-20T07:41:52.336Z,101172.94
2022-10-20T07:44:18.835Z,101186.31
2022-10-20T07:46:45.535Z,101172.06
2022-10-20T07:51:58.864Z,101158.44
2022-10-20T07:54:25.368Z,101161.50
2022-10-20T07:56:51.997Z,101147.34
2022-10-20T07:59:19.076Z,101139.53
2022-10-20T08:01:45.737Z,101125.63
2022-10-20T08:04:12.221Z,101121.38
2022-10-20T08:06:39.204Z,101115.47
2022-10-20T08:09:06.047Z,101115.28
2022-10-20T08:11:32.744Z,101111.84
2022-10-20T08:13:59.193Z,101112.94
2022-10-20T08:16:30.393Z,101106.66
2022-10-20T08:21:49.683Z,101098.06
2022-10-20T08:24:16.104Z,101086.09
2022-10-20T08:26:42.507Z,101094.97
2022-10-20T08:29:09.831Z,101090.84
2022-10-20T08:31:36.246Z,101086.34
2022-10-20T08:34:27.190Z,101080.00
2022-10-20T08:36:53.627Z,101087.56
2022-10-20T08:39:20.019Z,101082.66
2022-10-20T08:44:39.757Z,101070.47
2022-10-20T08:47:29.235Z,101068.91
2022-10-20T08:49:59.737Z,101072.94
2022-10-20T08:52:27.385Z,101075.69
2022-10-20T08:54:56.858Z,101069.00
2022-10-20T08:57:28.643Z,101060.09
2022-10-20T09:00:00.277Z,101057.59
2022-10-20T09:02:29.005Z,101074.72
2022-10-20T09:04:59.541Z,101064.97
2022-10-20T09:07:31.840Z,101064.91
2022-10-20T09:10:07.369Z,101066.72
2022-10-20T09:12:34.568Z,101059.53
2022-10-20T09:15:01.475Z,101055.81
2022-10-20T09:17:28.026Z,101052.34
2022-10-20T09:19:59.524Z,101048.84
2022-10-20T09:22:30.961Z,101049.34
2022-10-20T09:25:01.276Z,101047.03
2022-10-20T09:27:39.657Z,101033.91
2022-10-20T09:30:18.383Z,101042.00
2022-10-20T09:32:56.665Z,101024.00
2022-10-20T09:35:36.295Z,101028.66
2022-10-20T09:38:16.144Z,101019.19
2022-10-20T09:40:57.586Z,101018.97
2022-10-20T09:43:25.894Z,101024.13
2022-10-20T09:45:56.030Z,101013.31
2022-10-20T09:48:27.298Z,101010.03
2022-10-20T09:50:56.601Z,101023.13
2022-10-20T09:53:31.860Z,101022.78
2022-10-20T09:55:58.573Z,101032.88
2022-10-20T09:58:30.253Z,101023.72
2022-10-20T10:01:12.963Z,101013.78
2022-10-20T10:03:45.998Z,101017.78
2022-10-20T10:06:31.109Z,101022.06
2022-10-20T10:09:00.416Z,101020.38
2022-10-20T10:11:33.781Z,101021.88
2022-10-20T10:14:01.205Z,101017.59
2022-10-20T10:16:38.502Z,101012.31
2022-10-20T10:19:05.615Z,101018.69
2022-10-20T10:21:48.572Z,101012.59
2022-10-20T10:24:33.983Z,101003.50
2022-10-20T10:27:00.435Z,100996.34
2022-10-20T10:29:28.778Z,100993.91
2022-10-20T10:32:04.025Z,101008.63
2022-10-20T10:34:58.278Z,100992.28
2022-10-20T10:37:24.670Z,100986.44
2022-10-20T10:39:51.175Z,100966.50
2022-10-20T10:42:32.765Z,100960.94
2022-10-20T10:45:18.704Z,100952.50
2022-10-20T10:47:57.014Z,100952.06
2022-10-20T10:50:46.689Z,100939.59
2022-10-20T10:53:20.710Z,100936.69
2022-10-20T10:56:00.280Z,100937.75
2022-10-20T10:58:46.574Z,100921.78
2022-10-20T11:01:18.927Z,100922.81
2022-10-20T11:04:22.726Z,100921.44
2022-10-20T11:07:03.836Z,100917.72
2022-10-20T11:09:41.933Z,100906.34
2022-10-20T11:12:42.714Z,100904.56
2022-10-20T11:15:43.054Z,100896.63
2022-10-20T11:18:33.553Z,100888.97
2022-10-20T11:21:31.687Z,100893.31
2022-10-20T11:24:07.046Z,100879.94
2022-10-20T11:26:39.613Z,100873.50
2022-10-20T11:29:31.631Z,100871.16
2022-10-20T11:32:20.222Z,100870.34
2022-10-20T11:35:28.105Z,100858.03
2022-10-20T11:38:19.243Z,100867.59
2022-10-20T11:40:59.374Z,100844.06
2022-10-20T11:43:44.685Z,100842.03
2022-10-20T11:46:19.928Z,100832.34
2022-10-20T11:48:52.669Z,100830.41
2022-10-20T11:51:24.810Z,100831.78
2022-10-20T11:54:19.169Z,100830.66
2022-10-20T11:57:10.595Z,100820.69
2022-10-20T11:59:46.134Z,100817.75
2022-10-20T12:03:03.134Z,100815.41
2022-10-20T12:05:36.271Z,100821.38
2022-10-20T12:08:29.941Z,100829.91
2022-10-20T12:11:40.906Z,100834.59
2022-10-20T12:14:24.473Z,100815.66
2022-10-20T12:17:02.559Z,100800.09
2022-10-20T12:19:31.586Z,100803.03
2022-10-20T12:22:03.936Z,100788.75
2022-10-20T12:24:42.026Z,100782.97
2022-10-20T12:27:08.371Z,100769.97
2022-10-20T12:29:34.699Z,100780.31
2022-10-20T12:32:25.647Z,100785.34
2022-10-20T12:35:00.532Z,100791.72
2022-10-20T12:37:30.268Z,100789.38
2022-10-20T12:40:23.903Z,100780.00
2022-10-20T12:42:53.676Z,100789.13
2022-10-20T12:45:20.006Z,100776.28
2022-10-20T12:47:53.873Z,100773.63
2022-10-20T12:50:42.462Z,100789.47
2022-10-20T12:53:17.887Z,100790.53
2022-10-20T12:55:46.962Z,100780.44
2022-10-20T12:58:19.502Z,100775.19
2022-10-20T13:00:45.952Z,100779.03
2022-10-20T13:03:48.926Z,100789.06
2022-10-20T13:06:24.752Z,100773.69
2022-10-20T13:09:03.786Z,100782.53
2022-10-20T13:11:37.553Z,100765.06
2022-10-20T13:14:13.107Z,100768.78
2022-10-20T13:16:50.228Z,100751.84
2022-10-20T13:19:24.543Z,100744.03
2022-10-20T13:21:51.379Z,100753.13
2022-10-20T13:24:47.620Z,100743.91
2022-10-20T13:27:16.335Z,100741.78
2022-10-20T13:29:43.756Z,100740.28
2022-10-20T13:32:20.909Z,100732.84
2022-10-20T13:34:51.770Z,100739.97
2022-10-20T13:37:37.067Z,100745.66
2022-10-20T13:40:10.617Z,100751.69
2022-10-20T13:43:04.568Z,100754.88
2022-10-20T13:45:49.295Z,100748.44
2022-10-20T13:48:36.994Z,100742.91
2022-10-20T13:51:17.166Z,100742.56
2022-10-20T13:53:49.996Z,100741.66
2022-10-20T13:56:16.335Z,100745.31
2022-10-20T13:59:04.506Z,100728.06
2022-10-20T14:01:34.440Z,100740.53
2022-10-20T14:04:01.320Z,100719.28
2022-10-20T14:06:27.988Z,100728.50
2022-10-20T14:08:55.447Z,100735.75
2022-10-20T14:11:22.420Z,100735.97
2022-10-20T14:13:49.143Z,100740.22
2022-10-20T14:16:20.504Z,100723.13
2022-10-20T14:19:05.624Z,100712.19
2022-10-20T14:21:43.300Z,100720.03
2022-10-20T14:24:18.930Z,100729.78
2022-10-20T14:26:45.882Z,100709.03
2022-10-20T14:29:16.124Z,100708.34
2022-10-20T14:31:43.388Z,100717.41
2022-10-20T14:34:33.160Z,100711.44
2022-10-20T14:37:00.605Z,100723.38
2022-10-20T14:39:26.962Z,100712.84
2022-10-20T14:41:57.032Z,100703.47
2022-10-20T14:44:31.543Z,100709.72
2022-10-20T14:47:05.224Z,100702.22
2022-10-20T14:49:38.007Z,100683.63
2022-10-20T14:52:21.240Z,100691.63
2022-10-20T14:54:50.057Z,100687.56
2022-10-20T14:57:16.408Z,100669.78
2022-10-20T15:00:04.412Z,100643.41
2022-10-20T15:02:39.055Z,100634.13
2022-10-20T15:05:45.117Z,100617.56
2022-10-20T15:08:28.389Z,100610.63
2022-10-20T15:10:55.745Z,100605.97
2022-10-20T15:13:28.453Z,100629.13
2022-10-20T15:15:55.725Z,100631.72
2022-10-20T15:18:23.904Z,100627.63
2022-10-20T15:20:53.730Z,100637.69
2022-10-20T15:23:27.719Z,100645.22
2022-10-20T15:26:23.356Z,100667.84
2022-10-20T15:28:50.275Z,100655.13
2022-10-20T15:31:18.983Z,100673.78
2022-10-20T15:33:46.334Z,100665.56
2022-10-20T15:36:15.865Z,100664.69
2022-10-20T15:38:42.891Z,100667.59
2022-10-20T15:41:13.365Z,100677.19
2022-10-20T15:43:39.768Z,100671.34
2022-10-20T15:46:06.161Z,100655.88
2022-10-20T15:48:32.539Z,100650.78
2022-10-20T15:51:01.809Z,100653.69
2022-10-20T15:53:28.211Z,100654.63
2022-10-20T15:55:54.791Z,100646.81
2022-10-20T15:58:21.318Z,100657.06
2022-10-20T16:00:47.947Z,100648.97
2022-10-20T16:03:18.577Z,100640.44
2022-10-20T16:05:46.728Z,100638.06
2022-10-20T16:10:44.518Z,100640.84
2022-10-20T16:13:11.838Z,100639.91
2022-10-20T16:15:38.351Z,100627.41
2022-10-20T16:18:07.297Z,100631.28
2022-10-20T16:20:36.055Z,100623.59
2022-10-20T16:23:02.482Z,100618.88
2022-10-20T16:25:28.893Z,100630.41
2022-10-20T16:27:55.338Z,100630.22
2022-10-20T16:30:21.795Z,100621.03
2022-10-20T16:32:48.257Z,100625.94
2022-10-20T16:35:14.800Z,100612.97
2022-10-20T16:37:41.219Z,100623.38
2022-10-20T16:40:08.168Z,100615.59
2022-10-20T16:42:34.702Z,100615.69
2022-10-20T16:45:01.073Z,100624.00
2022-10-20T16:47:27.524Z,100607.28
2022-10-20T16:49:54.036Z,100613.41
2022-10-20T16:52:20.517Z,100604.63
2022-10-20T16:54:47.073Z,100619.88
2022-10-20T16:57:14.116Z,100621.22
2022-10-20T16:59:42.543Z,100613.75
2022-10-20T17:02:12.247Z,100610.16
2022-10-20T17:04:38.670Z,100605.38
2022-10-20T17:07:05.676Z,100594.50
2022-10-20T17:09:32.077Z,100602.06
2022-10-20T17:11:58.502Z,100590.00
2022-10-20T17:14:25.118Z,100593.47
2022-10-20T17:16:51.611Z,100593.72
2022-10-20T17:19:18.034Z,100595.72
2022-10-20T17:21:44.487Z,100585.50
2022-10-20T17:24:12.199Z,100591.91
2022-10-20T17:26:40.128Z,100594.03
2022-10-20T17:29:06.809Z,100590.84
2022-10-20T17:31:33.199Z,100598.72
2022-10-20T17:33:59.848Z,100610.66
2022-10-20T17:36:27.120Z,100598.22
2022-10-20T17:38:56.243Z,100603.56
2022-10-20T17:41:23.030Z,100602.34
2022-10-20T17:43:49.680Z,100589.81
2022-10-20T17:46:18.204Z,100600.28
2022-10-20T17:48:45.286Z,100601.38
2022-10-20T17:51:17.421Z,100596.69
2022-10-20T17:53:47.928Z,100600.91
2022-10-20T17:56:17.551Z,100605.06
2022-10-20T17:58:46.443Z,100591.72
2022-10-20T18:01:42.234Z,100574.91
2022-10-20T18:04:14.838Z,100580.44
2022-10-20T18:06:43.058Z,100570.22
2022-10-20T18:09:12.748Z,100569.06
2022-10-20T18:11:42.616Z,100573.41
2022-10-20T18:14:09.051Z,100583.97
2022-10-20T18:16:37.205Z,100581.84
2022-10-20T18:19:04.572Z,100576.06
2022-10-20T18:21:31.932Z,100579.31
2022-10-20T18:24:02.355Z,100574.72
2022-10-20T18:26:30.419Z,100575.56
2022-10-20T18:28:58.570Z,100567.97
2022-10-20T18:31:27.350Z,100562.56
2022-10-20T18:34:02.630Z,100563.31
2022-10-20T18:36:33.371Z,100551.28
2022-10-20T18:39:00.871Z,100546.91
2022-10-20T18:41:30.392Z,100526.47
2022-10-20T18:43:59.675Z,100528.50
2022-10-20T18:46:28.340Z,100518.47
2022-10-20T18:48:55.591Z,100519.66
2022-10-20T18:51:22.706Z,100516.69
2022-10-20T18:53:53.539Z,100513.91
2022-10-20T18:56:21.980Z,100511.78
2022-10-20T18:58:53.839Z,100512.53
2022-10-20T19:01:23.047Z,100509.94
2022-10-20T19:03:52.282Z,100503.38
2022-10-20T19:06:24.564Z,100503.91
2022-10-20T19:08:56.088Z,100490.38
2022-10-20T19:11:24.650Z,100475.78
2022-10-20T19:13:51.672Z,100470.03
2022-10-20T19:16:21.671Z,100460.78
2022-10-20T19:18:50.587Z,100462.06
2022-10-20T19:21:18.037Z,100448.56
2022-10-20T19:23:48.183Z,100455.47
2022-10-20T19:26:21.687Z,100461.13
2022-10-20T19:29:00.500Z,100454.94
2022-10-20T19:31:34.535Z,100456.22
2022-10-20T19:34:05.847Z,100469.00
2022-10-20T19:36:33.101Z,100472.00
2022-10-20T19:38:59.559Z,100473.72
2022-10-20T19:41:26.813Z,100487.59
2022-10-20T19:43:53.504Z,100494.41
2022-10-20T19:46:21.304Z,100500.47
2022-10-20T19:48:48.937Z,100508.53
2022-10-20T19:51:16.829Z,100495.16
2022-10-20T19:53:43.622Z,100503.34
2022-10-20T19:56:10.647Z,100501.63
2022-10-20T19:58:41.374Z,100502.00
2022-10-20T20:01:10.691Z,100495.22
2022-10-20T20:03:37.199Z,100494.50
2022-10-20T20:06:17.868Z,100494.25
2022-10-20T20:08:46.054Z,100483.94
2022-10-20T20:11:23.345Z,100476.16
2022-10-20T20:13:55.413Z,100476.63
2022-10-20T20:16:21.875Z,100478.94
2022-10-20T20:18:48.810Z,100476.41
2022-10-20T20:21:16.034Z,100490.22
2022-10-20T20:23:58.453Z,100482.75
2022-10-20T20:26:26.408Z,100469.63
2022-10-20T20:28:54.438Z,100475.59
2022-10-20T20:31:22.008Z,100473.06
2022-10-20T20:33:49.614Z,100472.41
2022-10-20T20:36:16.579Z,100468.66
2022-10-20T20:38:43.119Z,100462.91
2022-10-20T20:41:15.048Z,100465.38
2022-10-20T20:43:45.330Z,100471.34
2022-10-20T20:46:15.170Z,100462.63
2022-10-20T20:48:45.238Z,100458.56
2022-10-20T20:51:12.800Z,100463.66
2022-10-20T20:53:40.457Z,100460.69
2022-10-20T20:56:09.713Z,100465.59
2022-10-20T20:58:36.420Z,100475.16
2022-10-20T21:01:05.649Z,100468.56
2022-10-20T21:03:32.839Z,100454.31
2022-10-20T21:06:06.738Z,100454.31
2022-10-20T21:08:34.497Z,100449.84
2022-10-20T21:11:06.092Z,100451.53
2022-10-20T21:13:34.016Z,100443.22
2022-10-20T21:16:13.958Z,100441.09
2022-10-20T21:18:42.094Z,100444.28
2022-10-20T21:21:16.237Z,100437.06
2022-10-20T21:23:43.335Z,100443.63
2022-10-20T21:26:11.728Z,100441.69
2022-10-20T21:28:38.261Z,100434.16
2022-10-20T21:31:06.151Z,100434.28
2022-10-20T21:33:33.284Z,100443.03
2022-10-20T21:36:01.507Z,100438.44
2022-10-20T21:38:35.050Z,100428.97
2022-10-20T21:41:12.768Z,100435.78
2022-10-20T21:43:42.055Z,100432.31
2022-10-20T21:46:17.683Z,100431.41
2022-10-20T21:48:46.399Z,100426.06
2022-10-20T21:51:26.022Z,100415.13
2022-10-20T21:54:03.736Z,100426.19
2022-10-20T21:56:33.021Z,100435.78
2022-10-20T21:58:59.477Z,100428.59
2022-10-20T22:01:26.213Z,100426.53
2022-10-20T22:03:53.962Z,100429.97
2022-10-20T22:06:23.438Z,100425.06
2022-10-20T22:08:55.758Z,100431.47
2022-10-20T22:11:31.664Z,100424.16
2022-10-20T22:13:58.764Z,100410.63
2022-10-20T22:16:30.573Z,100402.19
2022-10-20T22:19:00.247Z,100400.03
2022-10-20T22:21:27.855Z,100390.81
2022-10-20T22:23:55.577Z,100392.09
2022-10-20T22:26:25.686Z,100386.97
2022-10-20T22:28:53.238Z,100388.50
2022-10-20T22:31:19.888Z,100384.00
2022-10-20T22:33:46.310Z,100376.13
2022-10-20T22:36:12.770Z,100385.41
2022-10-20T22:38:39.163Z,100389.00
2022-10-20T22:41:05.662Z,100395.31
2022-10-20T22:43:32.221Z,100412.41
2022-10-20T22:45:58.804Z,100430.44
2022-10-20T22:48:25.710Z,100430.75
2022-10-20T22:50:52.256Z,100420.66
2022-10-20T22:53:19.125Z,100414.38
2022-10-20T22:55:45.842Z,100424.97
2022-10-20T22:58:12.359Z,100432.25
2022-10-20T23:00:43.488Z,100428.13
2022-10-20T23:03:10.776Z,100435.66
2022-10-20T23:05:37.580Z,100427.94
2022-10-20T23:08:04.399Z,100429.78
2022-10-20T23:10:30.913Z,100430.34
2022-10-20T23:12:57.346Z,100427.19
2022-10-20T23:15:23.855Z,100439.25
2022-10-20T23:17:50.262Z,100438.72
2022-10-20T23:20:16.665Z,100440.97
2022-10-20T23:22:43.073Z,100438.53
2022-10-20T23:25:09.695Z,100438.00
2022-10-20T23:27:36.417Z,100437.06
2022-10-20T23:30:04.024Z,100435.09
2022-10-20T23:32:30.530Z,100437.47
2022-10-20T23:34:56.915Z,100434.56
2022-10-20T23:37:23.610Z,100435.53
2022-10-20T23:39:49.987Z,100422.03
2022-10-20T23:42:16.386Z,100432.25
2022-10-20T23:44:42.991Z,100428.13
2022-10-20T23:47:09.398Z,100422.38
2022-10-20T23:49:35.811Z,100418.22
2022-10-20T23:52:02.216Z,100411.53
2022-10-20T23:54:28.599Z,100419.41
2022-10-20T23:56:57.605Z,100406.94
2022-10-20T23:59:24.044Z,100395.16
